sensor_id;sensor_type;location;lat;lon;timestamp;P1;durP1;ratioP1;P2;durP2;ratioP2
21233;SDS011;10774;42.178;26.578;2022-07-29T00:02:01;3.10;;;2.85;;
21233;SDS011;10774;42.178;26.578;2022-07-29T00:04:26;3.70;;;2.95;;
21233;SDS011;10774;42.178;26.578;2022-07-29T00:06:52;7.82;;;3.28;;
21233;SDS011;10774;42.178;26.578;2022-07-29T00:09:17;6.32;;;3.30;;
21233;SDS011;10774;42.178;26.578;2022-07-29T00:11:42;5.07;;;3.25;;
21233;SDS011;10774;42.178;26.578;2022-07-29T00:14:08;9.82;;;3.10;;
21233;SDS011;10774;42.178;26.578;2022-07-29T00:16:33;3.35;;;3.05;;
21233;SDS011;10774;42.178;26.578;2022-07-29T00:18:59;7.72;;;3.00;;
21233;SDS011;10774;42.178;26.578;2022-07-29T00:21:24;5.25;;;2.97;;
21233;SDS011;10774;42.178;26.578;2022-07-29T00:23:50;3.97;;;2.95;;
21233;SDS011;10774;42.178;26.578;2022-07-29T00:26:16;4.15;;;2.85;;
21233;SDS011;10774;42.178;26.578;2022-07-29T00:28:41;5.05;;;2.70;;
21233;SDS011;10774;42.178;26.578;2022-07-29T00:31:07;4.95;;;2.80;;
21233;SDS011;10774;42.178;26.578;2022-07-29T00:33:33;5.63;;;3.05;;
21233;SDS011;10774;42.178;26.578;2022-07-29T00:35:58;5.97;;;2.85;;
21233;SDS011;10774;42.178;26.578;2022-07-29T00:38:23;6.40;;;2.90;;
21233;SDS011;10774;42.178;26.578;2022-07-29T00:40:49;5.63;;;2.88;;
21233;SDS011;10774;42.178;26.578;2022-07-29T00:43:15;4.93;;;3.08;;
21233;SDS011;10774;42.178;26.578;2022-07-29T00:45:42;5.70;;;3.40;;
21233;SDS011;10774;42.178;26.578;2022-07-29T00:48:07;3.92;;;2.72;;
21233;SDS011;10774;42.178;26.578;2022-07-29T00:50:33;3.42;;;2.90;;
21233;SDS011;10774;42.178;26.578;2022-07-29T00:53:00;6.30;;;3.13;;
21233;SDS011;10774;42.178;26.578;2022-07-29T00:55:26;5.88;;;3.20;;
21233;SDS011;10774;42.178;26.578;2022-07-29T00:57:51;5.47;;;2.90;;
21233;SDS011;10774;42.178;26.578;2022-07-29T01:00:19;8.13;;;3.00;;
21233;SDS011;10774;42.178;26.578;2022-07-29T01:02:47;6.18;;;3.10;;
21233;SDS011;10774;42.178;26.578;2022-07-29T01:05:13;7.43;;;3.35;;
21233;SDS011;10774;42.178;26.578;2022-07-29T01:07:40;4.85;;;3.15;;
21233;SDS011;10774;42.178;26.578;2022-07-29T01:10:06;4.45;;;3.03;;
21233;SDS011;10774;42.178;26.578;2022-07-29T01:12:34;4.65;;;3.30;;
21233;SDS011;10774;42.178;26.578;2022-07-29T01:15:02;5.05;;;3.28;;
21233;SDS011;10774;42.178;26.578;2022-07-29T01:20:17;3.90;;;3.20;;
21233;SDS011;10774;42.178;26.578;2022-07-29T01:22:58;3.95;;;3.22;;
21233;SDS011;10774;42.178;26.578;2022-07-29T01:28:39;6.93;;;3.63;;
21233;SDS011;10774;42.178;26.578;2022-07-29T01:31:12;3.65;;;3.05;;
21233;SDS011;10774;42.178;26.578;2022-07-29T01:33:45;6.45;;;3.30;;
21233;SDS011;10774;42.178;26.578;2022-07-29T01:39:17;4.00;;;2.88;;
21233;SDS011;10774;42.178;26.578;2022-07-29T01:41:49;6.35;;;2.92;;
21233;SDS011;10774;42.178;26.578;2022-07-29T01:44:23;6.55;;;3.40;;
21233;SDS011;10774;42.178;26.578;2022-07-29T01:49:25;5.70;;;3.00;;
21233;SDS011;10774;42.178;26.578;2022-07-29T01:51:56;6.63;;;2.97;;
21233;SDS011;10774;42.178;26.578;2022-07-29T01:57:02;6.40;;;3.70;;
21233;SDS011;10774;42.178;26.578;2022-07-29T01:59:29;6.57;;;3.55;;
21233;SDS011;10774;42.178;26.578;2022-07-29T02:01:57;5.90;;;3.28;;
21233;SDS011;10774;42.178;26.578;2022-07-29T02:04:24;5.15;;;3.20;;
21233;SDS011;10774;42.178;26.578;2022-07-29T02:06:53;5.75;;;3.20;;
21233;SDS011;10774;42.178;26.578;2022-07-29T02:09:20;5.18;;;2.90;;
21233;SDS011;10774;42.178;26.578;2022-07-29T02:11:48;4.85;;;3.45;;
21233;SDS011;10774;42.178;26.578;2022-07-29T02:14:17;4.63;;;2.95;;
21233;SDS011;10774;42.178;26.578;2022-07-29T02:16:44;4.43;;;3.42;;
21233;SDS011;10774;42.178;26.578;2022-07-29T02:19:14;4.50;;;3.10;;
21233;SDS011;10774;42.178;26.578;2022-07-29T02:21:43;5.90;;;3.60;;
21233;SDS011;10774;42.178;26.578;2022-07-29T02:24:10;4.22;;;3.28;;
21233;SDS011;10774;42.178;26.578;2022-07-29T02:26:37;5.90;;;3.22;;
21233;SDS011;10774;42.178;26.578;2022-07-29T02:29:06;7.32;;;4.05;;
21233;SDS011;10774;42.178;26.578;2022-07-29T02:31:34;10.05;;;3.90;;
21233;SDS011;10774;42.178;26.578;2022-07-29T02:34:05;6.90;;;3.20;;
21233;SDS011;10774;42.178;26.578;2022-07-29T02:36:33;9.15;;;3.47;;
21233;SDS011;10774;42.178;26.578;2022-07-29T02:38:59;7.30;;;3.63;;
21233;SDS011;10774;42.178;26.578;2022-07-29T02:41:30;4.57;;;3.25;;
21233;SDS011;10774;42.178;26.578;2022-07-29T02:44:03;8.70;;;3.58;;
21233;SDS011;10774;42.178;26.578;2022-07-29T02:46:34;6.18;;;3.55;;
21233;SDS011;10774;42.178;26.578;2022-07-29T02:49:04;4.70;;;3.08;;
21233;SDS011;10774;42.178;26.578;2022-07-29T02:51:40;7.57;;;3.58;;
21233;SDS011;10774;42.178;26.578;2022-07-29T02:54:10;5.50;;;3.20;;
21233;SDS011;10774;42.178;26.578;2022-07-29T02:56:43;4.63;;;3.40;;
21233;SDS011;10774;42.178;26.578;2022-07-29T02:59:11;4.78;;;3.60;;
21233;SDS011;10774;42.178;26.578;2022-07-29T03:01:39;6.32;;;3.67;;
21233;SDS011;10774;42.178;26.578;2022-07-29T03:04:07;5.28;;;3.17;;
21233;SDS011;10774;42.178;26.578;2022-07-29T03:06:34;6.45;;;3.53;;
21233;SDS011;10774;42.178;26.578;2022-07-29T03:09:02;7.95;;;3.70;;
21233;SDS011;10774;42.178;26.578;2022-07-29T03:11:28;4.63;;;3.50;;
21233;SDS011;10774;42.178;26.578;2022-07-29T03:13:55;8.07;;;3.30;;
21233;SDS011;10774;42.178;26.578;2022-07-29T03:16:21;7.18;;;3.28;;
21233;SDS011;10774;42.178;26.578;2022-07-29T03:18:48;7.32;;;3.58;;
21233;SDS011;10774;42.178;26.578;2022-07-29T03:21:15;5.05;;;3.35;;
21233;SDS011;10774;42.178;26.578;2022-07-29T03:23:43;5.78;;;3.65;;
21233;SDS011;10774;42.178;26.578;2022-07-29T03:26:12;6.43;;;3.28;;
21233;SDS011;10774;42.178;26.578;2022-07-29T03:28:38;5.00;;;3.50;;
21233;SDS011;10774;42.178;26.578;2022-07-29T03:31:04;4.80;;;2.97;;
21233;SDS011;10774;42.178;26.578;2022-07-29T03:33:29;8.10;;;3.70;;
21233;SDS011;10774;42.178;26.578;2022-07-29T03:35:55;8.63;;;3.65;;
21233;SDS011;10774;42.178;26.578;2022-07-29T03:38:22;4.88;;;3.25;;
21233;SDS011;10774;42.178;26.578;2022-07-29T03:40:51;5.97;;;3.80;;
21233;SDS011;10774;42.178;26.578;2022-07-29T03:43:31;6.22;;;3.70;;
21233;SDS011;10774;42.178;26.578;2022-07-29T03:45:59;4.05;;;3.65;;
21233;SDS011;10774;42.178;26.578;2022-07-29T03:48:26;4.05;;;3.35;;
21233;SDS011;10774;42.178;26.578;2022-07-29T03:50:54;5.60;;;3.67;;
21233;SDS011;10774;42.178;26.578;2022-07-29T03:53:20;5.13;;;3.63;;
21233;SDS011;10774;42.178;26.578;2022-07-29T03:55:50;3.85;;;3.40;;
21233;SDS011;10774;42.178;26.578;2022-07-29T03:58:19;8.52;;;3.63;;
21233;SDS011;10774;42.178;26.578;2022-07-29T04:00:46;7.07;;;3.65;;
21233;SDS011;10774;42.178;26.578;2022-07-29T04:03:12;4.70;;;3.30;;
21233;SDS011;10774;42.178;26.578;2022-07-29T04:05:38;4.40;;;3.30;;
21233;SDS011;10774;42.178;26.578;2022-07-29T04:08:04;5.15;;;3.53;;
21233;SDS011;10774;42.178;26.578;2022-07-29T04:10:29;4.68;;;3.42;;
21233;SDS011;10774;42.178;26.578;2022-07-29T04:12:55;7.07;;;4.00;;
21233;SDS011;10774;42.178;26.578;2022-07-29T04:15:21;9.68;;;5.43;;
21233;SDS011;10774;42.178;26.578;2022-07-29T04:17:46;9.27;;;4.13;;
21233;SDS011;10774;42.178;26.578;2022-07-29T04:20:11;7.55;;;4.28;;
21233;SDS011;10774;42.178;26.578;2022-07-29T04:22:38;8.85;;;4.38;;
21233;SDS011;10774;42.178;26.578;2022-07-29T04:25:04;9.43;;;3.80;;
21233;SDS011;10774;42.178;26.578;2022-07-29T04:27:30;6.50;;;3.83;;
21233;SDS011;10774;42.178;26.578;2022-07-29T04:29:55;6.45;;;3.60;;
21233;SDS011;10774;42.178;26.578;2022-07-29T04:32:21;6.07;;;3.53;;
21233;SDS011;10774;42.178;26.578;2022-07-29T04:34:46;7.28;;;3.58;;
21233;SDS011;10774;42.178;26.578;2022-07-29T04:37:12;4.85;;;3.50;;
21233;SDS011;10774;42.178;26.578;2022-07-29T04:39:38;5.25;;;3.90;;
21233;SDS011;10774;42.178;26.578;2022-07-29T04:42:03;6.30;;;3.55;;
21233;SDS011;10774;42.178;26.578;2022-07-29T04:44:29;12.52;;;3.90;;
21233;SDS011;10774;42.178;26.578;2022-07-29T04:46:55;8.07;;;3.90;;
21233;SDS011;10774;42.178;26.578;2022-07-29T04:49:20;8.30;;;4.18;;
21233;SDS011;10774;42.178;26.578;2022-07-29T04:51:46;8.23;;;4.32;;
21233;SDS011;10774;42.178;26.578;2022-07-29T04:54:11;8.40;;;3.60;;
21233;SDS011;10774;42.178;26.578;2022-07-29T04:56:36;4.30;;;3.75;;
21233;SDS011;10774;42.178;26.578;2022-07-29T04:59:02;5.15;;;3.70;;
21233;SDS011;10774;42.178;26.578;2022-07-29T05:01:27;6.80;;;3.72;;
21233;SDS011;10774;42.178;26.578;2022-07-29T05:03:53;3.72;;;3.38;;
21233;SDS011;10774;42.178;26.578;2022-07-29T05:06:18;8.52;;;3.65;;
21233;SDS011;10774;42.178;26.578;2022-07-29T05:08:44;4.72;;;3.40;;
21233;SDS011;10774;42.178;26.578;2022-07-29T05:11:09;4.85;;;3.28;;
21233;SDS011;10774;42.178;26.578;2022-07-29T05:13:35;6.85;;;3.30;;
21233;SDS011;10774;42.178;26.578;2022-07-29T05:16:00;9.02;;;3.80;;
21233;SDS011;10774;42.178;26.578;2022-07-29T05:18:26;4.28;;;3.55;;
21233;SDS011;10774;42.178;26.578;2022-07-29T05:20:52;9.75;;;4.25;;
21233;SDS011;10774;42.178;26.578;2022-07-29T05:23:17;8.05;;;3.78;;
21233;SDS011;10774;42.178;26.578;2022-07-29T05:25:43;7.80;;;4.13;;
21233;SDS011;10774;42.178;26.578;2022-07-29T05:28:08;8.20;;;3.47;;
21233;SDS011;10774;42.178;26.578;2022-07-29T05:30:34;6.03;;;3.95;;
21233;SDS011;10774;42.178;26.578;2022-07-29T05:32:59;10.05;;;3.78;;
21233;SDS011;10774;42.178;26.578;2022-07-29T05:35:25;6.80;;;3.08;;
21233;SDS011;10774;42.178;26.578;2022-07-29T05:37:50;8.27;;;3.13;;
21233;SDS011;10774;42.178;26.578;2022-07-29T05:40:15;7.15;;;3.05;;
21233;SDS011;10774;42.178;26.578;2022-07-29T05:42:41;5.20;;;2.97;;
21233;SDS011;10774;42.178;26.578;2022-07-29T05:45:07;8.07;;;3.33;;
21233;SDS011;10774;42.178;26.578;2022-07-29T05:47:33;3.47;;;3.17;;
21233;SDS011;10774;42.178;26.578;2022-07-29T05:49:58;5.32;;;2.58;;
21233;SDS011;10774;42.178;26.578;2022-07-29T05:52:24;5.22;;;2.70;;
21233;SDS011;10774;42.178;26.578;2022-07-29T05:54:50;9.55;;;3.33;;
21233;SDS011;10774;42.178;26.578;2022-07-29T05:57:20;6.95;;;2.92;;
21233;SDS011;10774;42.178;26.578;2022-07-29T05:59:47;8.55;;;3.20;;
21233;SDS011;10774;42.178;26.578;2022-07-29T06:02:14;7.07;;;3.00;;
21233;SDS011;10774;42.178;26.578;2022-07-29T06:04:39;6.05;;;2.70;;
21233;SDS011;10774;42.178;26.578;2022-07-29T06:07:05;6.00;;;2.58;;
21233;SDS011;10774;42.178;26.578;2022-07-29T06:09:31;6.88;;;3.08;;
21233;SDS011;10774;42.178;26.578;2022-07-29T06:11:56;7.93;;;2.80;;
21233;SDS011;10774;42.178;26.578;2022-07-29T06:14:23;7.43;;;2.60;;
21233;SDS011;10774;42.178;26.578;2022-07-29T06:16:48;7.28;;;2.60;;
21233;SDS011;10774;42.178;26.578;2022-07-29T06:19:14;8.35;;;2.45;;
21233;SDS011;10774;42.178;26.578;2022-07-29T06:21:43;3.22;;;2.20;;
21233;SDS011;10774;42.178;26.578;2022-07-29T06:24:10;6.65;;;2.13;;
21233;SDS011;10774;42.178;26.578;2022-07-29T06:26:37;2.30;;;2.00;;
21233;SDS011;10774;42.178;26.578;2022-07-29T06:29:03;2.75;;;1.80;;
21233;SDS011;10774;42.178;26.578;2022-07-29T06:31:28;1.88;;;1.65;;
21233;SDS011;10774;42.178;26.578;2022-07-29T06:33:54;2.47;;;1.80;;
21233;SDS011;10774;42.178;26.578;2022-07-29T06:36:19;4.18;;;2.17;;
21233;SDS011;10774;42.178;26.578;2022-07-29T06:38:45;4.45;;;2.08;;
21233;SDS011;10774;42.178;26.578;2022-07-29T06:41:10;3.45;;;1.70;;
21233;SDS011;10774;42.178;26.578;2022-07-29T06:43:40;7.03;;;2.13;;
21233;SDS011;10774;42.178;26.578;2022-07-29T06:46:15;5.30;;;2.28;;
21233;SDS011;10774;42.178;26.578;2022-07-29T06:48:44;6.40;;;2.22;;
21233;SDS011;10774;42.178;26.578;2022-07-29T06:51:12;4.05;;;2.15;;
21233;SDS011;10774;42.178;26.578;2022-07-29T06:53:38;7.93;;;2.70;;
21233;SDS011;10774;42.178;26.578;2022-07-29T06:56:04;3.40;;;1.75;;
21233;SDS011;10774;42.178;26.578;2022-07-29T06:58:33;6.68;;;3.00;;
21233;SDS011;10774;42.178;26.578;2022-07-29T07:01:01;3.25;;;2.60;;
21233;SDS011;10774;42.178;26.578;2022-07-29T07:03:29;4.57;;;1.88;;
21233;SDS011;10774;42.178;26.578;2022-07-29T07:05:55;3.95;;;2.05;;
21233;SDS011;10774;42.178;26.578;2022-07-29T07:08:20;5.65;;;2.28;;
21233;SDS011;10774;42.178;26.578;2022-07-29T07:10:47;4.65;;;2.05;;
21233;SDS011;10774;42.178;26.578;2022-07-29T07:13:13;8.68;;;2.03;;
21233;SDS011;10774;42.178;26.578;2022-07-29T07:15:39;5.07;;;2.03;;
21233;SDS011;10774;42.178;26.578;2022-07-29T07:18:05;4.22;;;2.38;;
21233;SDS011;10774;42.178;26.578;2022-07-29T07:20:31;3.45;;;2.30;;
21233;SDS011;10774;42.178;26.578;2022-07-29T07:22:57;3.55;;;2.05;;
21233;SDS011;10774;42.178;26.578;2022-07-29T07:25:23;5.30;;;2.30;;
21233;SDS011;10774;42.178;26.578;2022-07-29T07:27:48;2.75;;;1.90;;
21233;SDS011;10774;42.178;26.578;2022-07-29T07:30:14;3.42;;;2.28;;
21233;SDS011;10774;42.178;26.578;2022-07-29T07:32:39;3.05;;;1.90;;
21233;SDS011;10774;42.178;26.578;2022-07-29T07:35:05;1.98;;;1.77;;
21233;SDS011;10774;42.178;26.578;2022-07-29T07:37:32;7.32;;;2.30;;
21233;SDS011;10774;42.178;26.578;2022-07-29T07:39:58;4.78;;;2.22;;
21233;SDS011;10774;42.178;26.578;2022-07-29T07:42:24;4.03;;;2.00;;
21233;SDS011;10774;42.178;26.578;2022-07-29T07:44:49;3.13;;;2.10;;
21233;SDS011;10774;42.178;26.578;2022-07-29T07:47:15;5.00;;;1.80;;
21233;SDS011;10774;42.178;26.578;2022-07-29T07:49:47;2.70;;;2.00;;
21233;SDS011;10774;42.178;26.578;2022-07-29T07:52:14;5.15;;;2.08;;
21233;SDS011;10774;42.178;26.578;2022-07-29T07:54:41;3.90;;;1.98;;
21233;SDS011;10774;42.178;26.578;2022-07-29T07:57:07;3.83;;;2.00;;
21233;SDS011;10774;42.178;26.578;2022-07-29T07:59:33;4.53;;;1.70;;
21233;SDS011;10774;42.178;26.578;2022-07-29T08:01:58;5.15;;;2.00;;
21233;SDS011;10774;42.178;26.578;2022-07-29T08:04:25;3.05;;;1.92;;
21233;SDS011;10774;42.178;26.578;2022-07-29T08:06:50;3.22;;;1.65;;
21233;SDS011;10774;42.178;26.578;2022-07-29T08:09:16;6.80;;;2.00;;
21233;SDS011;10774;42.178;26.578;2022-07-29T08:11:41;4.00;;;1.70;;
21233;SDS011;10774;42.178;26.578;2022-07-29T08:14:06;4.10;;;1.60;;
21233;SDS011;10774;42.178;26.578;2022-07-29T08:16:32;8.98;;;1.73;;
21233;SDS011;10774;42.178;26.578;2022-07-29T08:18:57;4.40;;;1.80;;
21233;SDS011;10774;42.178;26.578;2022-07-29T08:21:23;5.80;;;1.90;;
21233;SDS011;10774;42.178;26.578;2022-07-29T08:23:50;5.25;;;1.60;;
21233;SDS011;10774;42.178;26.578;2022-07-29T08:26:40;15.75;;;2.10;;
21233;SDS011;10774;42.178;26.578;2022-07-29T08:29:06;8.10;;;2.03;;
21233;SDS011;10774;42.178;26.578;2022-07-29T08:31:31;4.38;;;1.80;;
21233;SDS011;10774;42.178;26.578;2022-07-29T08:33:57;8.60;;;1.80;;
21233;SDS011;10774;42.178;26.578;2022-07-29T08:36:24;7.03;;;2.10;;
21233;SDS011;10774;42.178;26.578;2022-07-29T08:38:51;4.82;;;1.88;;
21233;SDS011;10774;42.178;26.578;2022-07-29T08:41:18;1.90;;;1.50;;
21233;SDS011;10774;42.178;26.578;2022-07-29T08:43:44;3.85;;;1.70;;
21233;SDS011;10774;42.178;26.578;2022-07-29T08:46:10;6.80;;;2.05;;
21233;SDS011;10774;42.178;26.578;2022-07-29T08:48:35;7.95;;;2.65;;
21233;SDS011;10774;42.178;26.578;2022-07-29T08:51:01;7.78;;;2.40;;
21233;SDS011;10774;42.178;26.578;2022-07-29T08:53:28;8.95;;;1.70;;
21233;SDS011;10774;42.178;26.578;2022-07-29T08:55:53;3.25;;;1.63;;
21233;SDS011;10774;42.178;26.578;2022-07-29T08:58:20;4.18;;;1.92;;
21233;SDS011;10774;42.178;26.578;2022-07-29T09:00:50;5.40;;;1.98;;
21233;SDS011;10774;42.178;26.578;2022-07-29T09:03:19;3.60;;;1.98;;
21233;SDS011;10774;42.178;26.578;2022-07-29T09:05:48;6.00;;;1.90;;
21233;SDS011;10774;42.178;26.578;2022-07-29T09:08:14;3.03;;;1.52;;
21233;SDS011;10774;42.178;26.578;2022-07-29T09:10:42;5.88;;;1.63;;
21233;SDS011;10774;42.178;26.578;2022-07-29T09:13:07;7.13;;;2.03;;
21233;SDS011;10774;42.178;26.578;2022-07-29T09:15:33;2.65;;;1.90;;
21233;SDS011;10774;42.178;26.578;2022-07-29T09:17:58;6.97;;;1.75;;
21233;SDS011;10774;42.178;26.578;2022-07-29T09:20:24;7.07;;;1.75;;
21233;SDS011;10774;42.178;26.578;2022-07-29T09:23:11;4.43;;;1.77;;
21233;SDS011;10774;42.178;26.578;2022-07-29T09:25:38;7.93;;;1.90;;
21233;SDS011;10774;42.178;26.578;2022-07-29T09:28:09;3.38;;;2.00;;
21233;SDS011;10774;42.178;26.578;2022-07-29T09:30:52;9.35;;;2.05;;
21233;SDS011;10774;42.178;26.578;2022-07-29T09:33:23;4.03;;;2.05;;
21233;SDS011;10774;42.178;26.578;2022-07-29T09:36:02;4.82;;;1.80;;
21233;SDS011;10774;42.178;26.578;2022-07-29T09:38:29;4.05;;;1.60;;
21233;SDS011;10774;42.178;26.578;2022-07-29T09:41:01;3.05;;;1.90;;
21233;SDS011;10774;42.178;26.578;2022-07-29T09:43:28;4.70;;;1.90;;
21233;SDS011;10774;42.178;26.578;2022-07-29T09:45:53;4.68;;;1.70;;
21233;SDS011;10774;42.178;26.578;2022-07-29T09:48:20;4.55;;;1.70;;
21233;SDS011;10774;42.178;26.578;2022-07-29T09:50:48;6.65;;;1.80;;
21233;SDS011;10774;42.178;26.578;2022-07-29T09:53:32;4.15;;;2.05;;
21233;SDS011;10774;42.178;26.578;2022-07-29T09:55:58;8.68;;;2.30;;
21233;SDS011;10774;42.178;26.578;2022-07-29T09:58:24;3.42;;;1.77;;
21233;SDS011;10774;42.178;26.578;2022-07-29T10:00:50;3.53;;;1.88;;
21233;SDS011;10774;42.178;26.578;2022-07-29T10:03:17;5.57;;;1.80;;
21233;SDS011;10774;42.178;26.578;2022-07-29T10:05:43;6.03;;;1.90;;
21233;SDS011;10774;42.178;26.578;2022-07-29T10:08:10;2.53;;;1.70;;
21233;SDS011;10774;42.178;26.578;2022-07-29T10:10:38;5.00;;;1.52;;
21233;SDS011;10774;42.178;26.578;2022-07-29T10:13:12;7.20;;;2.00;;
21233;SDS011;10774;42.178;26.578;2022-07-29T10:15:39;3.92;;;1.90;;
21233;SDS011;10774;42.178;26.578;2022-07-29T10:18:08;3.63;;;1.60;;
21233;SDS011;10774;42.178;26.578;2022-07-29T10:20:35;3.38;;;1.70;;
21233;SDS011;10774;42.178;26.578;2022-07-29T10:23:02;3.25;;;1.50;;
21233;SDS011;10774;42.178;26.578;2022-07-29T10:25:28;3.75;;;1.70;;
21233;SDS011;10774;42.178;26.578;2022-07-29T10:27:53;3.95;;;1.70;;
21233;SDS011;10774;42.178;26.578;2022-07-29T10:30:20;5.80;;;1.67;;
21233;SDS011;10774;42.178;26.578;2022-07-29T10:43:54;2.83;;;1.80;;
21233;SDS011;10774;42.178;26.578;2022-07-29T10:46:25;2.83;;;1.70;;
21233;SDS011;10774;42.178;26.578;2022-07-29T10:57:11;5.20;;;1.80;;
21233;SDS011;10774;42.178;26.578;2022-07-29T10:59:37;6.80;;;1.70;;
21233;SDS011;10774;42.178;26.578;2022-07-29T11:02:03;5.20;;;1.70;;
21233;SDS011;10774;42.178;26.578;2022-07-29T11:07:23;5.03;;;1.60;;
21233;SDS011;10774;42.178;26.578;2022-07-29T11:15:02;3.00;;;1.75;;
21233;SDS011;10774;42.178;26.578;2022-07-29T11:17:30;2.78;;;1.85;;
21233;SDS011;10774;42.178;26.578;2022-07-29T11:31:51;3.60;;;1.73;;
21233;SDS011;10774;42.178;26.578;2022-07-29T11:39:32;6.32;;;1.70;;
21233;SDS011;10774;42.178;26.578;2022-07-29T11:42:36;8.93;;;1.70;;
21233;SDS011;10774;42.178;26.578;2022-07-29T11:47:31;6.47;;;1.75;;
21233;SDS011;10774;42.178;26.578;2022-07-29T11:50:26;9.82;;;1.70;;
21233;SDS011;10774;42.178;26.578;2022-07-29T11:53:00;7.00;;;1.88;;
21233;SDS011;10774;42.178;26.578;2022-07-29T11:55:26;12.13;;;2.10;;
21233;SDS011;10774;42.178;26.578;2022-07-29T11:57:56;13.30;;;2.55;;
21233;SDS011;10774;42.178;26.578;2022-07-29T12:02:56;6.45;;;2.10;;
21233;SDS011;10774;42.178;26.578;2022-07-29T12:05:32;8.43;;;2.20;;
21233;SDS011;10774;42.178;26.578;2022-07-29T12:08:12;6.88;;;2.00;;
21233;SDS011;10774;42.178;26.578;2022-07-29T12:10:46;8.32;;;1.92;;
21233;SDS011;10774;42.178;26.578;2022-07-29T12:13:14;7.00;;;2.17;;
21233;SDS011;10774;42.178;26.578;2022-07-29T12:15:41;5.82;;;1.60;;
21233;SDS011;10774;42.178;26.578;2022-07-29T12:18:13;3.53;;;1.65;;
21233;SDS011;10774;42.178;26.578;2022-07-29T12:23:07;7.97;;;1.80;;
21233;SDS011;10774;42.178;26.578;2022-07-29T12:25:36;11.75;;;1.92;;
21233;SDS011;10774;42.178;26.578;2022-07-29T12:28:06;4.30;;;1.70;;
21233;SDS011;10774;42.178;26.578;2022-07-29T12:30:40;2.42;;;1.63;;
21233;SDS011;10774;42.178;26.578;2022-07-29T12:33:17;4.88;;;1.35;;
21233;SDS011;10774;42.178;26.578;2022-07-29T12:35:44;7.32;;;1.77;;
21233;SDS011;10774;42.178;26.578;2022-07-29T12:38:12;8.02;;;2.00;;
21233;SDS011;10774;42.178;26.578;2022-07-29T12:40:38;6.97;;;1.70;;
21233;SDS011;10774;42.178;26.578;2022-07-29T12:45:40;5.90;;;1.65;;
21233;SDS011;10774;42.178;26.578;2022-07-29T12:48:08;5.53;;;2.00;;
21233;SDS011;10774;42.178;26.578;2022-07-29T12:50:35;6.93;;;1.95;;
21233;SDS011;10774;42.178;26.578;2022-07-29T12:53:08;4.70;;;1.65;;
21233;SDS011;10774;42.178;26.578;2022-07-29T12:55:42;5.82;;;1.60;;
21233;SDS011;10774;42.178;26.578;2022-07-29T12:58:09;6.05;;;1.80;;
21233;SDS011;10774;42.178;26.578;2022-07-29T13:00:34;5.53;;;1.70;;
21233;SDS011;10774;42.178;26.578;2022-07-29T13:03:00;3.35;;;1.40;;
21233;SDS011;10774;42.178;26.578;2022-07-29T13:05:39;4.43;;;1.90;;
21233;SDS011;10774;42.178;26.578;2022-07-29T13:08:10;4.13;;;1.50;;
21233;SDS011;10774;42.178;26.578;2022-07-29T13:10:36;7.65;;;1.65;;
21233;SDS011;10774;42.178;26.578;2022-07-29T13:13:06;5.85;;;1.80;;
21233;SDS011;10774;42.178;26.578;2022-07-29T13:15:34;2.13;;;1.45;;
21233;SDS011;10774;42.178;26.578;2022-07-29T13:18:04;12.98;;;2.20;;
21233;SDS011;10774;42.178;26.578;2022-07-29T13:20:30;5.90;;;1.83;;
21233;SDS011;10774;42.178;26.578;2022-07-29T13:22:57;7.75;;;1.70;;
21233;SDS011;10774;42.178;26.578;2022-07-29T13:25:25;6.63;;;1.60;;
21233;SDS011;10774;42.178;26.578;2022-07-29T13:27:54;3.58;;;1.50;;
21233;SDS011;10774;42.178;26.578;2022-07-29T13:30:20;2.95;;;1.50;;
21233;SDS011;10774;42.178;26.578;2022-07-29T13:32:47;2.33;;;1.75;;
21233;SDS011;10774;42.178;26.578;2022-07-29T13:35:12;9.27;;;1.85;;
21233;SDS011;10774;42.178;26.578;2022-07-29T13:37:38;5.13;;;1.58;;
21233;SDS011;10774;42.178;26.578;2022-07-29T13:40:04;6.68;;;1.95;;
21233;SDS011;10774;42.178;26.578;2022-07-29T13:42:31;5.35;;;1.77;;
21233;SDS011;10774;42.178;26.578;2022-07-29T13:44:57;3.60;;;1.48;;
21233;SDS011;10774;42.178;26.578;2022-07-29T13:47:23;5.32;;;1.48;;
21233;SDS011;10774;42.178;26.578;2022-07-29T13:49:49;2.65;;;1.48;;
21233;SDS011;10774;42.178;26.578;2022-07-29T13:52:15;4.88;;;1.40;;
21233;SDS011;10774;42.178;26.578;2022-07-29T13:54:40;2.92;;;1.60;;
21233;SDS011;10774;42.178;26.578;2022-07-29T13:57:06;3.58;;;1.42;;
21233;SDS011;10774;42.178;26.578;2022-07-29T13:59:32;4.03;;;1.65;;
21233;SDS011;10774;42.178;26.578;2022-07-29T14:01:58;4.18;;;1.60;;
21233;SDS011;10774;42.178;26.578;2022-07-29T14:04:24;4.35;;;1.50;;
21233;SDS011;10774;42.178;26.578;2022-07-29T14:06:50;2.35;;;1.20;;
21233;SDS011;10774;42.178;26.578;2022-07-29T14:09:16;6.75;;;1.52;;
21233;SDS011;10774;42.178;26.578;2022-07-29T14:11:41;5.45;;;1.80;;
21233;SDS011;10774;42.178;26.578;2022-07-29T14:14:07;6.20;;;1.88;;
21233;SDS011;10774;42.178;26.578;2022-07-29T14:16:33;4.18;;;1.60;;
21233;SDS011;10774;42.178;26.578;2022-07-29T14:18:58;3.85;;;1.30;;
21233;SDS011;10774;42.178;26.578;2022-07-29T14:21:24;4.07;;;1.50;;
21233;SDS011;10774;42.178;26.578;2022-07-29T14:23:50;6.10;;;1.60;;
21233;SDS011;10774;42.178;26.578;2022-07-29T14:26:17;5.15;;;1.40;;
21233;SDS011;10774;42.178;26.578;2022-07-29T14:28:42;5.30;;;1.60;;
21233;SDS011;10774;42.178;26.578;2022-07-29T14:31:08;9.07;;;1.63;;
21233;SDS011;10774;42.178;26.578;2022-07-29T14:33:34;7.05;;;1.77;;
21233;SDS011;10774;42.178;26.578;2022-07-29T14:35:59;4.25;;;1.70;;
21233;SDS011;10774;42.178;26.578;2022-07-29T14:38:25;3.95;;;1.50;;
21233;SDS011;10774;42.178;26.578;2022-07-29T14:40:50;4.60;;;1.50;;
21233;SDS011;10774;42.178;26.578;2022-07-29T14:43:16;3.58;;;1.63;;
21233;SDS011;10774;42.178;26.578;2022-07-29T14:45:41;7.35;;;1.70;;
21233;SDS011;10774;42.178;26.578;2022-07-29T14:48:06;3.42;;;1.38;;
21233;SDS011;10774;42.178;26.578;2022-07-29T14:50:32;5.80;;;1.58;;
21233;SDS011;10774;42.178;26.578;2022-07-29T14:52:58;5.15;;;1.60;;
21233;SDS011;10774;42.178;26.578;2022-07-29T14:55:24;4.32;;;1.45;;
21233;SDS011;10774;42.178;26.578;2022-07-29T14:57:50;3.15;;;1.73;;
21233;SDS011;10774;42.178;26.578;2022-07-29T15:00:16;8.07;;;1.55;;
21233;SDS011;10774;42.178;26.578;2022-07-29T15:02:42;6.00;;;1.83;;
21233;SDS011;10774;42.178;26.578;2022-07-29T15:05:07;3.00;;;1.63;;
21233;SDS011;10774;42.178;26.578;2022-07-29T15:07:33;2.17;;;1.50;;
21233;SDS011;10774;42.178;26.578;2022-07-29T15:09:59;5.88;;;1.70;;
21233;SDS011;10774;42.178;26.578;2022-07-29T15:12:24;3.03;;;1.85;;
21233;SDS011;10774;42.178;26.578;2022-07-29T15:14:49;4.93;;;1.70;;
21233;SDS011;10774;42.178;26.578;2022-07-29T15:17:15;4.63;;;2.05;;
21233;SDS011;10774;42.178;26.578;2022-07-29T15:19:40;4.28;;;1.90;;
21233;SDS011;10774;42.178;26.578;2022-07-29T15:22:06;3.92;;;1.67;;
21233;SDS011;10774;42.178;26.578;2022-07-29T15:24:31;5.25;;;1.92;;
21233;SDS011;10774;42.178;26.578;2022-07-29T15:26:57;2.42;;;1.70;;
21233;SDS011;10774;42.178;26.578;2022-07-29T15:29:22;4.70;;;1.80;;
21233;SDS011;10774;42.178;26.578;2022-07-29T15:31:48;6.03;;;2.00;;
21233;SDS011;10774;42.178;26.578;2022-07-29T15:34:14;7.10;;;1.85;;
21233;SDS011;10774;42.178;26.578;2022-07-29T15:36:39;5.78;;;1.95;;
21233;SDS011;10774;42.178;26.578;2022-07-29T15:39:05;4.57;;;1.85;;
21233;SDS011;10774;42.178;26.578;2022-07-29T15:41:31;2.78;;;1.67;;
21233;SDS011;10774;42.178;26.578;2022-07-29T15:43:56;7.15;;;2.53;;